Terminal Aerodrome Forecast
Issued by NWS Upton, NY

Home | Current Version | Previous Version | Text Only | Print | Product List | Glossary On
Versions: 1 2 3 4 5 6 7 8 9 10 11 12 13 14 15 16 17 18 19 20 21 22 23 24 25 26 27 28 29 30 31 32 33 34 35
000
FTUS41 KOKX 191734
TAFEWR
TAF
KEWR 191734Z 1918/2024 19009KT P6SM SCT025 BKN040
     FM192200 19006KT 4SM -RA BR BKN025 OVC040 WS020/21040KT
     FM200300 20005KT 5SM BR SCT006 OVC015 WS020/23035KT
     FM200700 21005KT 2SM BR BKN006 OVC015 WS020/23035KT
     FM201200 21006KT 4SM BR SCT006 BKN020
     FM201500 22008KT 6SM BR FEW010 SCT025 BKN250
     FM201700 22010KT P6SM SCT025 BKN250=

USA.gov is the U.S. government's official web portal to all federal, state and local government web resources and services.